Time;durP1;ratioP1;P1;durP2;ratioP2;P2;SDS_P1;SDS_P2;PMS_P1;PMS_P2;Temp;Humidity;BMP_temperature;BMP_pressure;BME280_temperature;BME280_humidity;BME280_pressure;Samples;Min_cycle;Max_cycle;Signal;HPM_P1;HPM_P2
2022/07/02 00:01:29;;;;;;;0.70;0.70;;;;;;;;;;5033728;28;20445;-69
2022/07/02 00:03:58;;;;;;;0.70;0.70;;;;;;;;;;5050698;28;20506;-69
2022/07/02 00:06:29;;;;;;;0.70;0.70;;;;;;;;;;5055128;28;20461;-68
2022/07/02 00:08:55;;;;;;;0.70;0.70;;;;;;;;;;5049358;28;20443;-68
2022/07/02 00:11:21;;;;;;;0.70;0.70;;;;;;;;;;5052451;28;20893;-69
2022/07/02 00:13:47;;;;;;;0.73;0.73;;;;;;;;;;5056901;28;20411;-68
2022/07/02 00:16:13;;;;;;;0.77;0.77;;;;;;;;;;5049341;28;20427;-68
2022/07/02 00:18:39;;;;;;;0.82;0.82;;;;;;;;;;5050697;28;20415;-68
2022/07/02 00:21:05;;;;;;;0.80;0.80;;;;;;;;;;5061966;27;21193;-68
2022/07/02 00:23:31;;;;;;;0.80;0.80;;;;;;;;;;5052798;28;20466;-69
2022/07/02 00:26:04;;;;;;;0.80;0.80;;;;;;;;;;5053429;28;20443;-69
2022/07/02 00:28:30;;;;;;;0.90;0.90;;;;;;;;;;5054945;28;20430;-68
2022/07/02 00:30:56;;;;;;;0.90;0.90;;;;;;;;;;5036417;28;20406;-68
2022/07/02 00:33:22;;;;;;;0.80;0.80;;;;;;;;;;5050711;28;20447;-68
2022/07/02 00:35:48;;;;;;;0.90;0.90;;;;;;;;;;5054983;28;20908;-69
2022/07/02 00:38:14;;;;;;;0.80;0.80;;;;;;;;;;5054340;28;20418;-68
2022/07/02 00:40:40;;;;;;;0.90;0.90;;;;;;;;;;5055115;28;20491;-68
2022/07/02 00:43:06;;;;;;;0.82;0.82;;;;;;;;;;5013475;28;20441;-68
2022/07/02 00:45:33;;;;;;;0.90;0.90;;;;;;;;;;5041288;28;20419;-68
2022/07/02 00:47:59;;;;;;;0.80;0.80;;;;;;;;;;5042020;28;21271;-68
2022/07/02 00:50:25;;;;;;;1.00;1.00;;;;;;;;;;5050982;28;20446;-68
2022/07/02 00:52:51;;;;;;;0.90;0.90;;;;;;;;;;5053109;28;20423;-68
2022/07/02 00:55:17;;;;;;;1.10;1.10;;;;;;;;;;5040029;28;20466;-68
2022/07/02 00:57:45;;;;;;;1.00;1.00;;;;;;;;;;5054615;28;20478;-68
2022/07/02 01:00:11;;;;;;;1.00;1.00;;;;;;;;;;5042090;28;20407;-68
2022/07/02 01:02:37;;;;;;;0.90;0.90;;;;;;;;;;5050049;28;20513;-69
2022/07/02 01:05:03;;;;;;;0.98;0.98;;;;;;;;;;5050083;28;20419;-69
2022/07/02 01:07:30;;;;;;;0.90;0.90;;;;;;;;;;5053469;28;20421;-69
2022/07/02 01:12:41;;;;;;;0.90;0.90;;;;;;;;;;5039579;28;21244;-68
2022/07/02 01:15:07;;;;;;;1.00;1.00;;;;;;;;;;5053748;28;20426;-68
2022/07/02 01:17:33;;;;;;;1.00;1.00;;;;;;;;;;5052647;28;20469;-70
2022/07/02 01:19:59;;;;;;;1.00;1.00;;;;;;;;;;5050448;28;20417;-69
2022/07/02 01:22:26;;;;;;;1.00;1.00;;;;;;;;;;5053896;28;21525;-69
2022/07/02 01:24:55;;;;;;;0.90;0.90;;;;;;;;;;5048915;28;20473;-69
2022/07/02 01:27:21;;;;;;;1.00;1.00;;;;;;;;;;5052716;28;20425;-69
2022/07/02 01:29:47;;;;;;;1.00;1.00;;;;;;;;;;5052309;28;20500;-69
2022/07/02 01:32:13;;;;;;;1.03;1.03;;;;;;;;;;5041187;28;20551;-68
2022/07/02 01:34:40;;;;;;;0.90;0.90;;;;;;;;;;5044623;28;20429;-68
2022/07/02 01:37:25;;;;;;;1.00;1.00;;;;;;;;;;5051289;28;20420;-68
2022/07/02 01:39:51;;;;;;;1.00;1.00;;;;;;;;;;5050379;28;20559;-69
2022/07/02 01:42:17;;;;;;;1.05;1.05;;;;;;;;;;5048881;28;20792;-69
2022/07/02 01:44:44;;;;;;;0.95;0.95;;;;;;;;;;5046230;28;20415;-68
2022/07/02 01:47:10;;;;;;;0.90;0.90;;;;;;;;;;5043639;28;20520;-69
2022/07/02 01:49:36;;;;;;;0.95;0.95;;;;;;;;;;5049287;28;20510;-68
2022/07/02 01:52:03;;;;;;;0.90;0.90;;;;;;;;;;5050811;28;20417;-69
2022/07/02 01:54:28;;;;;;;1.00;1.00;;;;;;;;;;5031493;28;20523;-69
2022/07/02 01:56:55;;;;;;;0.93;0.93;;;;;;;;;;5047336;28;20418;-68
2022/07/02 01:59:21;;;;;;;1.00;1.00;;;;;;;;;;5051332;28;20418;-68
2022/07/02 02:01:47;;;;;;;0.90;0.90;;;;;;;;;;5050543;28;20415;-69
2022/07/02 02:04:13;;;;;;;0.90;0.90;;;;;;;;;;5046456;28;20422;-69
2022/07/02 02:06:39;;;;;;;1.00;1.00;;;;;;;;;;5048416;28;20410;-69
2022/07/02 02:09:05;;;;;;;0.90;0.90;;;;;;;;;;5048837;28;21233;-69
2022/07/02 02:11:31;;;;;;;1.00;1.00;;;;;;;;;;5045741;28;20817;-69
2022/07/02 02:14:00;;;;;;;1.00;1.00;;;;;;;;;;5043802;28;20402;-68
2022/07/02 02:16:26;;;;;;;0.90;0.90;;;;;;;;;;5041704;28;20520;-69
2022/07/02 02:18:53;;;;;;;1.00;1.00;;;;;;;;;;5042076;28;20425;-69
2022/07/02 02:21:19;;;;;;;1.00;1.00;;;;;;;;;;5048001;28;20523;-69
2022/07/02 02:23:45;;;;;;;1.00;1.00;;;;;;;;;;5043849;28;20424;-69
2022/07/02 02:26:10;;;;;;;1.00;1.00;;;;;;;;;;5050774;28;20481;-68
2022/07/02 02:28:36;;;;;;;1.00;1.00;;;;;;;;;;5050323;28;20408;-68
2022/07/02 02:31:02;;;;;;;0.90;0.90;;;;;;;;;;5041177;28;20458;-68
2022/07/02 02:33:28;;;;;;;0.90;0.90;;;;;;;;;;5046453;28;20422;-68
2022/07/02 02:35:54;;;;;;;0.90;0.90;;;;;;;;;;5047023;28;20432;-68
2022/07/02 02:38:20;;;;;;;0.90;0.90;;;;;;;;;;5047337;28;20838;-68
2022/07/02 02:40:46;;;;;;;0.90;0.90;;;;;;;;;;5051584;28;20421;-68
2022/07/02 02:43:12;;;;;;;0.90;0.90;;;;;;;;;;5051710;28;20402;-68
2022/07/02 02:45:38;;;;;;;0.90;0.90;;;;;;;;;;5032367;28;20450;-68
2022/07/02 02:48:04;;;;;;;0.98;0.98;;;;;;;;;;5036805;28;20411;-68
2022/07/02 02:50:30;;;;;;;1.00;1.00;;;;;;;;;;5051788;28;20624;-68
2022/07/02 02:52:56;;;;;;;0.97;0.97;;;;;;;;;;5046963;28;21468;-69
2022/07/02 02:55:22;;;;;;;1.00;1.00;;;;;;;;;;5051158;28;20572;-68
2022/07/02 02:57:48;;;;;;;0.90;0.90;;;;;;;;;;5049459;28;20462;-69
2022/07/02 03:00:14;;;;;;;1.00;1.00;;;;;;;;;;5049171;28;20402;-68
2022/07/02 03:02:40;;;;;;;0.90;0.90;;;;;;;;;;5039389;28;20450;-68
2022/07/02 03:05:06;;;;;;;1.00;1.00;;;;;;;;;;5044005;28;20415;-69
2022/07/02 03:07:33;;;;;;;1.00;1.00;;;;;;;;;;5049158;28;20753;-69
2022/07/02 03:09:59;;;;;;;0.90;0.90;;;;;;;;;;5048565;28;20854;-68
2022/07/02 03:12:25;;;;;;;0.80;0.80;;;;;;;;;;5048519;28;20425;-68
2022/07/02 03:14:51;;;;;;;0.90;0.90;;;;;;;;;;5049019;28;20506;-68
2022/07/02 03:17:17;;;;;;;1.00;1.00;;;;;;;;;;5045168;28;21032;-69
2022/07/02 03:19:43;;;;;;;0.90;0.90;;;;;;;;;;5053831;28;20768;-69
2022/07/02 03:22:09;;;;;;;0.80;0.80;;;;;;;;;;5046774;28;20448;-68
2022/07/02 03:24:35;;;;;;;0.90;0.90;;;;;;;;;;5015777;28;20954;-69
2022/07/02 03:27:01;;;;;;;0.80;0.80;;;;;;;;;;5051769;28;20423;-69
2022/07/02 03:29:27;;;;;;;0.80;0.80;;;;;;;;;;5044780;28;20500;-68
2022/07/02 03:31:53;;;;;;;0.80;0.80;;;;;;;;;;5051508;28;20429;-68
2022/07/02 03:34:19;;;;;;;0.85;0.85;;;;;;;;;;5048852;28;20432;-68
2022/07/02 03:36:45;;;;;;;0.90;0.90;;;;;;;;;;5047595;28;20405;-68
2022/07/02 03:39:11;;;;;;;0.83;0.83;;;;;;;;;;5045825;28;20425;-68
2022/07/02 03:41:37;;;;;;;0.90;0.90;;;;;;;;;;5041798;28;20463;-68
2022/07/02 03:44:03;;;;;;;0.90;0.90;;;;;;;;;;5048127;28;20417;-68
2022/07/02 03:46:29;;;;;;;0.90;0.90;;;;;;;;;;5046318;28;20403;-69
2022/07/02 03:48:54;;;;;;;0.80;0.80;;;;;;;;;;5039069;28;20822;-68
2022/07/02 03:51:21;;;;;;;0.90;0.90;;;;;;;;;;5031992;28;20454;-68
2022/07/02 03:53:48;;;;;;;0.70;0.70;;;;;;;;;;5042604;28;20485;-68
2022/07/02 03:56:14;;;;;;;0.80;0.80;;;;;;;;;;5046025;28;20930;-69
2022/07/02 03:58:40;;;;;;;0.90;0.90;;;;;;;;;;5053315;28;20411;-68
2022/07/02 04:01:07;;;;;;;0.80;0.80;;;;;;;;;;5038238;28;20416;-67
2022/07/02 04:03:33;;;;;;;0.80;0.80;;;;;;;;;;5054072;28;20421;-68
2022/07/02 04:05:59;;;;;;;0.93;0.93;;;;;;;;;;5043755;28;20426;-68
2022/07/02 04:08:25;;;;;;;0.82;0.82;;;;;;;;;;5054096;28;20580;-68
2022/07/02 04:10:51;;;;;;;0.90;0.90;;;;;;;;;;5053251;28;20405;-69
2022/07/02 04:13:17;;;;;;;0.80;0.80;;;;;;;;;;5054770;28;20678;-69
2022/07/02 04:15:43;;;;;;;0.85;0.85;;;;;;;;;;5052925;28;20465;-67
2022/07/02 04:18:09;;;;;;;1.00;1.00;;;;;;;;;;5049253;28;20433;-69
2022/07/02 04:20:35;;;;;;;0.80;0.80;;;;;;;;;;5051486;28;20421;-69
2022/07/02 04:23:01;;;;;;;0.80;0.80;;;;;;;;;;5035542;28;20469;-68
2022/07/02 04:25:27;;;;;;;0.90;0.90;;;;;;;;;;5055175;28;20419;-68
2022/07/02 04:27:52;;;;;;;0.80;0.80;;;;;;;;;;5050368;28;20414;-69
2022/07/02 04:30:18;;;;;;;0.85;0.85;;;;;;;;;;5059553;27;20442;-69
2022/07/02 04:32:44;;;;;;;0.90;0.90;;;;;;;;;;5050233;28;20425;-68
2022/07/02 04:35:10;;;;;;;0.90;0.90;;;;;;;;;;5049344;28;20442;-68
2022/07/02 04:37:36;;;;;;;0.93;0.93;;;;;;;;;;5060239;28;20424;-69
2022/07/02 04:40:03;;;;;;;0.90;0.90;;;;;;;;;;5070432;28;20414;-68
2022/07/02 04:42:29;;;;;;;0.90;0.90;;;;;;;;;;5067631;28;20426;-68
2022/07/02 04:44:55;;;;;;;0.80;0.80;;;;;;;;;;5068353;28;20426;-68
2022/07/02 04:47:21;;;;;;;0.90;0.90;;;;;;;;;;5053188;28;20417;-69
2022/07/02 04:49:47;;;;;;;0.90;0.90;;;;;;;;;;5059324;28;20580;-68
2022/07/02 04:52:13;;;;;;;0.80;0.80;;;;;;;;;;5046311;28;20394;-68
2022/07/02 04:54:39;;;;;;;0.90;0.90;;;;;;;;;;5046142;28;20421;-68
2022/07/02 04:57:05;;;;;;;0.80;0.80;;;;;;;;;;5036438;28;20415;-68
2022/07/02 04:59:31;;;;;;;0.90;0.90;;;;;;;;;;5048252;28;20422;-69
2022/07/02 05:01:57;;;;;;;0.90;0.90;;;;;;;;;;5053163;28;20440;-68
2022/07/02 05:04:23;;;;;;;0.80;0.80;;;;;;;;;;5059681;28;20504;-69
2022/07/02 05:06:49;;;;;;;0.82;0.82;;;;;;;;;;5049800;28;20914;-68
2022/07/02 05:09:15;;;;;;;0.80;0.80;;;;;;;;;;5034403;28;20417;-69
2022/07/02 05:11:41;;;;;;;0.90;0.90;;;;;;;;;;5055599;28;20448;-68
2022/07/02 05:14:07;;;;;;;0.90;0.90;;;;;;;;;;5032928;28;20424;-68
2022/07/02 05:16:34;;;;;;;0.90;0.90;;;;;;;;;;5056478;27;20920;-69
2022/07/02 05:19:00;;;;;;;0.93;0.93;;;;;;;;;;5057567;28;21540;-68
2022/07/02 05:21:26;;;;;;;0.90;0.90;;;;;;;;;;5053513;28;20416;-69
2022/07/02 05:23:52;;;;;;;0.80;0.80;;;;;;;;;;5048977;28;20504;-68
2022/07/02 05:26:19;;;;;;;0.90;0.90;;;;;;;;;;5034477;28;20415;-68
2022/07/02 05:28:45;;;;;;;0.90;0.90;;;;;;;;;;5048374;28;20413;-69
2022/07/02 05:31:11;;;;;;;0.90;0.90;;;;;;;;;;5054777;28;20437;-69
2022/07/02 05:33:37;;;;;;;0.80;0.80;;;;;;;;;;5048205;28;21537;-69
2022/07/02 05:36:03;;;;;;;0.90;0.90;;;;;;;;;;5046244;28;20513;-69
2022/07/02 05:38:29;;;;;;;0.90;0.90;;;;;;;;;;5048057;28;20506;-69
2022/07/02 05:40:55;;;;;;;0.80;0.80;;;;;;;;;;5045134;28;20424;-68
2022/07/02 05:43:20;;;;;;;;;;;;;;;;;;5037968;28;20811;-69
2022/07/02 05:45:46;;;;;;;;;;;;;;;;;;5044737;28;25128;-68
2022/07/02 05:48:12;;;;;;;0.90;0.90;;;;;;;;;;5049605;28;20468;-68
2022/07/02 05:50:38;;;;;;;0.80;0.80;;;;;;;;;;5051479;28;20419;-67
2022/07/02 05:53:04;;;;;;;0.80;0.80;;;;;;;;;;5049512;28;20507;-69
2022/07/02 05:55:30;;;;;;;0.80;0.80;;;;;;;;;;5054700;28;20433;-68
2022/07/02 05:57:56;;;;;;;0.80;0.80;;;;;;;;;;5044005;28;20438;-68
2022/07/02 06:00:22;;;;;;;0.90;0.90;;;;;;;;;;5042859;28;20493;-68
2022/07/02 06:02:48;;;;;;;0.80;0.80;;;;;;;;;;5044434;28;20510;-68
2022/07/02 06:07:59;;;;;;;0.80;0.80;;;;;;;;;;5039064;28;20422;-68
2022/07/02 06:10:25;;;;;;;0.90;0.90;;;;;;;;;;5050584;28;20486;-69
2022/07/02 06:12:52;;;;;;;0.90;0.90;;;;;;;;;;5039130;28;20424;-68
2022/07/02 06:15:18;;;;;;;0.80;0.80;;;;;;;;;;5040748;28;20992;-69
2022/07/02 06:17:44;;;;;;;0.80;0.80;;;;;;;;;;5033307;28;20415;-69
2022/07/02 06:20:10;;;;;;;0.90;0.90;;;;;;;;;;5044697;28;20566;-68
2022/07/02 06:22:36;;;;;;;0.90;0.90;;;;;;;;;;5046342;28;20407;-68
2022/07/02 06:25:02;;;;;;;0.90;0.90;;;;;;;;;;5047810;28;20786;-69
2022/07/02 06:27:30;;;;;;;0.80;0.80;;;;;;;;;;5049470;28;20485;-69
2022/07/02 06:29:56;;;;;;;0.90;0.90;;;;;;;;;;5050383;28;20503;-69
2022/07/02 06:32:22;;;;;;;0.90;0.90;;;;;;;;;;5041995;28;20421;-68
2022/07/02 06:34:48;;;;;;;0.80;0.80;;;;;;;;;;5048169;28;21497;-68
2022/07/02 06:37:14;;;;;;;0.80;0.80;;;;;;;;;;5044438;28;20939;-68
2022/07/02 06:39:40;;;;;;;0.80;0.80;;;;;;;;;;5046470;28;20430;-69
2022/07/02 06:42:26;;;;;;;0.70;0.70;;;;;;;;;;5043836;28;20934;-69
2022/07/02 06:44:52;;;;;;;0.80;0.80;;;;;;;;;;5041447;28;20413;-68
2022/07/02 06:47:18;;;;;;;;;;;;;;;;;;5041316;28;20439;-70
2022/07/02 06:49:44;;;;;;;;;;;;;;;;;;5044342;28;19916;-71
2022/07/02 06:52:10;;;;;;;0.70;0.70;;;;;;;;;;5053279;28;20197;-69
2022/07/02 06:54:36;;;;;;;0.70;0.70;;;;;;;;;;5039197;28;20231;-70
2022/07/02 06:57:02;;;;;;;0.90;0.90;;;;;;;;;;5035781;28;20220;-69
2022/07/02 06:59:28;;;;;;;0.80;0.80;;;;;;;;;;5029710;28;20242;-69
2022/07/02 07:01:54;;;;;;;0.70;0.70;;;;;;;;;;5052774;28;20215;-69
2022/07/02 07:04:20;;;;;;;0.98;0.98;;;;;;;;;;5052520;28;20618;-70
2022/07/02 07:06:55;;;;;;;0.90;0.90;;;;;;;;;;5049448;28;20703;-70
2022/07/02 07:09:21;;;;;;;1.00;1.00;;;;;;;;;;5059594;28;20220;-70
2022/07/02 07:11:47;;;;;;;0.80;0.80;;;;;;;;;;5049076;28;20430;-69
2022/07/02 07:14:13;;;;;;;0.80;0.80;;;;;;;;;;5042856;28;20424;-71
2022/07/02 07:16:39;;;;;;;1.10;1.10;;;;;;;;;;5041237;28;20241;-72
2022/07/02 07:19:05;;;;;;;0.90;0.90;;;;;;;;;;5032434;28;21308;-70
2022/07/02 07:21:32;;;;;;;0.90;0.90;;;;;;;;;;5052523;28;20219;-71
2022/07/02 07:23:58;;;;;;;1.10;1.10;;;;;;;;;;5033625;28;26965;-70
2022/07/02 07:26:23;;;;;;;0.90;0.90;;;;;;;;;;5029262;28;20322;-70
2022/07/02 07:28:49;;;;;;;0.80;0.80;;;;;;;;;;5059848;28;20608;-70
2022/07/02 07:31:21;;;;;;;0.88;0.88;;;;;;;;;;5036827;28;20223;-70
2022/07/02 07:33:48;;;;;;;0.90;0.90;;;;;;;;;;5032185;28;20210;-70
2022/07/02 07:36:13;;;;;;;1.00;1.00;;;;;;;;;;5033507;28;20240;-71
2022/07/02 07:38:39;;;;;;;1.20;1.20;;;;;;;;;;5047151;28;20284;-71
2022/07/02 07:41:05;;;;;;;1.00;1.00;;;;;;;;;;5023597;28;20216;-70
2022/07/02 07:43:31;;;;;;;1.00;1.00;;;;;;;;;;5051981;28;20220;-72
2022/07/02 07:45:57;;;;;;;1.00;1.00;;;;;;;;;;5052590;28;20581;-71
2022/07/02 07:48:23;;;;;;;0.90;0.90;;;;;;;;;;5068836;28;20729;-72
2022/07/02 07:50:49;;;;;;;0.95;0.95;;;;;;;;;;5056009;27;20222;-70
2022/07/02 07:53:15;;;;;;;1.00;1.00;;;;;;;;;;5042845;28;20223;-72
2022/07/02 07:55:41;;;;;;;0.98;0.98;;;;;;;;;;5034550;28;21056;-73
2022/07/02 07:58:07;;;;;;;0.98;0.98;;;;;;;;;;5032928;28;20300;-75
2022/07/02 08:00:33;;;;;;;1.08;1.08;;;;;;;;;;5026656;28;20923;-75
2022/07/02 08:02:59;;;;;;;0.88;0.88;;;;;;;;;;5000308;28;21953;-75
2022/07/02 08:05:25;;;;;;;0.82;0.82;;;;;;;;;;5013317;28;20218;-75
2022/07/02 08:07:51;;;;;;;1.00;1.00;;;;;;;;;;5026453;28;20226;-76
2022/07/02 08:10:17;;;;;;;0.80;0.80;;;;;;;;;;5026303;28;20305;-75
2022/07/02 08:12:43;;;;;;;0.90;0.90;;;;;;;;;;5051637;28;20220;-75
2022/07/02 08:15:09;;;;;;;1.00;1.00;;;;;;;;;;5030296;28;20219;-73
2022/07/02 08:17:35;;;;;;;0.93;0.93;;;;;;;;;;5040068;28;20301;-75
2022/07/02 08:20:05;;;;;;;0.90;0.90;;;;;;;;;;5043128;28;20425;-74
2022/07/02 08:22:31;;;;;;;1.00;1.00;;;;;;;;;;5029406;28;20442;-74
2022/07/02 08:24:57;;;;;;;0.90;0.90;;;;;;;;;;5027913;28;20729;-75
2022/07/02 08:27:23;;;;;;;0.90;0.90;;;;;;;;;;5043523;28;20311;-74
2022/07/02 08:29:49;;;;;;;0.80;0.80;;;;;;;;;;5048624;28;20247;-75
2022/07/02 08:32:15;;;;;;;0.80;0.80;;;;;;;;;;5039366;28;20220;-75
2022/07/02 08:34:41;;;;;;;0.90;0.90;;;;;;;;;;5042585;28;20254;-75
2022/07/02 08:37:07;;;;;;;1.00;1.00;;;;;;;;;;5050591;28;20265;-75
2022/07/02 08:39:33;;;;;;;0.77;0.77;;;;;;;;;;5043938;28;20230;-74
2022/07/02 08:41:59;;;;;;;0.70;0.70;;;;;;;;;;5037374;28;20220;-75
2022/07/02 08:44:25;;;;;;;0.80;0.80;;;;;;;;;;5027667;28;20740;-74
2022/07/02 08:46:51;;;;;;;0.80;0.80;;;;;;;;;;5028921;28;21402;-75
2022/07/02 08:49:21;;;;;;;0.90;0.90;;;;;;;;;;5035078;28;20227;-74
2022/07/02 08:52:07;;;;;;;0.80;0.80;;;;;;;;;;5051779;28;20957;-74
2022/07/02 08:54:33;;;;;;;0.80;0.80;;;;;;;;;;5028630;28;20769;-74
2022/07/02 08:56:59;;;;;;;0.80;0.80;;;;;;;;;;5047324;28;20265;-74
2022/07/02 08:59:25;;;;;;;0.80;0.80;;;;;;;;;;5030651;28;20319;-75
2022/07/02 09:01:52;;;;;;;0.80;0.80;;;;;;;;;;5032814;28;20219;-75
2022/07/02 09:04:18;;;;;;;0.80;0.80;;;;;;;;;;5038413;28;20240;-75
2022/07/02 09:06:44;;;;;;;1.00;1.00;;;;;;;;;;5051694;28;20587;-74
2022/07/02 09:09:10;;;;;;;1.00;1.00;;;;;;;;;;5038361;28;20216;-74
2022/07/02 09:11:36;;;;;;;1.00;1.00;;;;;;;;;;5029972;28;20231;-75
2022/07/02 09:14:02;;;;;;;1.10;1.10;;;;;;;;;;5023562;28;20227;-74
2022/07/02 09:16:28;;;;;;;1.00;1.00;;;;;;;;;;5026998;28;20229;-74
2022/07/02 09:18:54;;;;;;;1.10;1.10;;;;;;;;;;5029236;27;21361;-75
2022/07/02 09:21:20;;;;;;;0.90;0.90;;;;;;;;;;5020296;28;20843;-74
2022/07/02 09:23:47;;;;;;;0.82;0.82;;;;;;;;;;5049829;28;20712;-74
2022/07/02 09:26:20;;;;;;;0.80;0.80;;;;;;;;;;5028509;28;20224;-74
2022/07/02 09:28:55;;;;;;;0.93;0.93;;;;;;;;;;5041196;28;20687;-76
2022/07/02 09:31:21;;;;;;;0.80;0.80;;;;;;;;;;5028983;28;20592;-75
2022/07/02 09:33:47;;;;;;;0.70;0.70;;;;;;;;;;5041254;28;20245;-76
2022/07/02 09:36:13;;;;;;;;;;;;;;;;;;5026616;28;20045;-74
2022/07/02 09:38:39;;;;;;;;;;;;;;;;;;5039205;28;20301;-74
2022/07/02 09:41:05;;;;;;;;;;;;;;;;;;5046124;27;19923;-74
2022/07/02 09:43:31;;;;;;;;;;;;;;;;;;5036405;28;19920;-75
2022/07/02 09:45:57;;;;;;;;;;;;;;;;;;5046551;28;19927;-74
2022/07/02 09:48:23;;;;;;;;;;;;;;;;;;5041583;28;19932;-74
2022/07/02 09:50:49;;;;;;;;;;;;;;;;;;5047411;28;19995;-75
2022/07/02 09:53:15;;;;;;;;;;;;;;;;;;5042668;28;23471;-75
2022/07/02 09:55:41;;;;;;;;;;;;;;;;;;5032335;28;19924;-74
2022/07/02 09:58:07;;;;;;;;;;;;;;;;;;5017561;28;20359;-75
2022/07/02 10:00:33;;;;;;;;;;;;;;;;;;5028789;28;19921;-74
2022/07/02 10:02:58;;;;;;;;;;;;;;;;;;5030960;28;19924;-73
2022/07/02 10:05:24;;;;;;;;;;;;;;;;;;5041247;28;19930;-73
2022/07/02 10:07:50;;;;;;;;;;;;;;;;;;5028975;28;21101;-73
2022/07/02 10:10:16;;;;;;;;;;;;;;;;;;5038055;28;20446;-73
2022/07/02 10:12:43;;;;;;;;;;;;;;;;;;5036939;28;19917;-73
2022/07/02 10:15:09;;;;;;;;;;;;;;;;;;5030269;28;20388;-73
2022/07/02 10:17:35;;;;;;;;;;;;;;;;;;5051304;28;19920;-74
2022/07/02 10:20:01;;;;;;;;;;;;;;;;;;5046166;28;19967;-73
2022/07/02 10:22:27;;;;;;;;;;;;;;;;;;5048741;28;19916;-73
2022/07/02 10:24:53;;;;;;;;;;;;;;;;;;5047075;28;20339;-73
2022/07/02 10:27:19;;;;;;;;;;;;;;;;;;5036709;28;19935;-72
2022/07/02 10:29:44;;;;;;;;;;;;;;;;;;5030757;28;19952;-72
2022/07/02 10:32:10;;;;;;;;;;;;;;;;;;5048067;28;19917;-72
2022/07/02 10:34:36;;;;;;;;;;;;;;;;;;5061101;28;21220;-72
2022/07/02 10:37:02;;;;;;;;;;;;;;;;;;5047591;28;19966;-73
2022/07/02 10:39:28;;;;;;;;;;;;;;;;;;5055026;28;19974;-72
2022/07/02 10:41:54;;;;;;;;;;;;;;;;;;5049880;28;19920;-75
2022/07/02 10:44:20;;;;;;;;;;;;;;;;;;5059985;28;20308;-73
2022/07/02 10:46:46;;;;;;;;;;;;;;;;;;5054476;28;19912;-73
2022/07/02 10:49:12;;;;;;;;;;;;;;;;;;5049947;28;19920;-72
2022/07/02 10:51:38;;;;;;;;;;;;;;;;;;5042532;28;19928;-72
2022/07/02 10:54:04;;;;;;;;;;;;;;;;;;5040503;28;19920;-72
2022/07/02 10:56:29;;;;;;;;;;;;;;;;;;5040299;28;19927;-72
2022/07/02 10:58:55;;;;;;;;;;;;;;;;;;5029677;28;19948;-72
2022/07/02 11:01:21;;;;;;;;;;;;;;;;;;5038379;28;19921;-72
2022/07/02 11:03:47;;;;;;;;;;;;;;;;;;5026721;28;19956;-73
2022/07/02 11:06:13;;;;;;;;;;;;;;;;;;5044858;28;21218;-71
2022/07/02 11:08:39;;;;;;;;;;;;;;;;;;5048215;28;20001;-72
2022/07/02 11:11:05;;;;;;;;;;;;;;;;;;5056298;28;19927;-71
2022/07/02 11:13:31;;;;;;;;;;;;;;;;;;5054022;28;19943;-73
2022/07/02 11:15:56;;;;;;;;;;;;;;;;;;5053131;28;20046;-72
2022/07/02 11:18:22;;;;;;;;;;;;;;;;;;5053569;28;19920;-72
2022/07/02 11:20:48;;;;;;;;;;;;;;;;;;5052310;28;20335;-72
2022/07/02 11:23:14;;;;;;;;;;;;;;;;;;5048698;28;19920;-72
2022/07/02 11:25:40;;;;;;;;;;;;;;;;;;5050546;28;19920;-72
2022/07/02 11:28:06;;;;;;;;;;;;;;;;;;5034297;28;19958;-74
2022/07/02 11:30:32;;;;;;;;;;;;;;;;;;5043986;28;20010;-72
2022/07/02 11:32:57;;;;;;;;;;;;;;;;;;5045796;28;20438;-73
2022/07/02 11:35:23;;;;;;;;;;;;;;;;;;5046778;28;19963;-71
2022/07/02 11:37:49;;;;;;;;;;;;;;;;;;5054446;28;19917;-72
2022/07/02 11:40:15;;;;;;;;;;;;;;;;;;5053559;27;19926;-73
2022/07/02 11:42:41;;;;;;;;;;;;;;;;;;5020440;28;20053;-72
2022/07/02 11:45:07;;;;;;;;;;;;;;;;;;5025610;28;19914;-72
2022/07/02 11:47:36;;;;;;;0.60;0.60;;;;;;;;;;5049880;28;20229;-74
2022/07/02 11:50:02;;;;;;;0.60;0.60;;;;;;;;;;5034664;28;20433;-74
2022/07/02 11:52:28;;;;;;;0.70;0.70;;;;;;;;;;5035398;28;21101;-75
2022/07/02 11:54:54;;;;;;;;;;;;;;;;;;5041129;28;20535;-75
2022/07/02 11:57:20;;;;;;;;;;;;;;;;;;5045765;28;20432;-75
2022/07/02 11:59:46;;;;;;;;;;;;;;;;;;5036641;28;19924;-76
2022/07/02 12:02:12;;;;;;;;;;;;;;;;;;5027229;28;20011;-75
2022/07/02 12:04:37;;;;;;;;;;;;;;;;;;5049229;28;19928;-74
2022/07/02 12:07:03;;;;;;;;;;;;;;;;;;5054676;28;20134;-75
2022/07/02 12:09:29;;;;;;;;;;;;;;;;;;5047522;28;19924;-74
2022/07/02 12:11:57;;;;;;;;;;;;;;;;;;5041737;28;19912;-75
2022/07/02 12:14:23;;;;;;;;;;;;;;;;;;5050126;28;19916;-75
2022/07/02 12:16:51;;;;;;;;;;;;;;;;;;5051030;28;19912;-76
2022/07/02 12:19:17;;;;;;;;;;;;;;;;;;5056156;28;19913;-76
2022/07/02 12:21:43;;;;;;;;;;;;;;;;;;5054616;28;19916;-75
2022/07/02 12:24:09;;;;;;;;;;;;;;;;;;5055347;28;19927;-75
2022/07/02 12:26:35;;;;;;;;;;;;;;;;;;5059154;27;19912;-75
2022/07/02 12:31:45;;;;;;;;;;;;;;;;;;5057275;28;20015;-75
2022/07/02 12:34:11;;;;;;;;;;;;;;;;;;5048616;28;19920;-75
2022/07/02 12:36:37;;;;;;;;;;;;;;;;;;5026120;28;19921;-75
2022/07/02 12:39:03;;;;;;;;;;;;;;;;;;5050232;28;20465;-75
2022/07/02 12:41:29;;;;;;;;;;;;;;;;;;5047320;28;19962;-75
2022/07/02 12:43:55;;;;;;;;;;;;;;;;;;5053306;28;19916;-75
2022/07/02 12:46:21;;;;;;;;;;;;;;;;;;5047496;28;19970;-75
2022/07/02 12:48:46;;;;;;;;;;;;;;;;;;5050271;28;19959;-76
2022/07/02 12:51:12;;;;;;;;;;;;;;;;;;5052375;28;19924;-75
2022/07/02 12:53:38;;;;;;;;;;;;;;;;;;5053336;28;19923;-75
2022/07/02 12:56:06;;;;;;;;;;;;;;;;;;5050270;28;19931;-76
2022/07/02 12:58:32;;;;;;;;;;;;;;;;;;5043572;28;19927;-76
2022/07/02 13:00:58;;;;;;;;;;;;;;;;;;5047415;28;19920;-77
2022/07/02 13:03:24;;;;;;;;;;;;;;;;;;5053594;28;20005;-76
2022/07/02 13:05:50;;;;;;;;;;;;;;;;;;5047641;28;19921;-76
2022/07/02 13:08:16;;;;;;;;;;;;;;;;;;5054699;28;19916;-75
2022/07/02 13:10:42;;;;;;;;;;;;;;;;;;5049292;28;20478;-75
2022/07/02 13:13:07;;;;;;;;;;;;;;;;;;5051812;28;19966;-75
2022/07/02 13:15:34;;;;;;;;;;;;;;;;;;5042952;28;20340;-76
2022/07/02 13:17:59;;;;;;;;;;;;;;;;;;5047770;28;19912;-75
2022/07/02 13:20:25;;;;;;;;;;;;;;;;;;5045224;28;19923;-75
2022/07/02 13:22:51;;;;;;;;;;;;;;;;;;5053535;28;19927;-75
2022/07/02 13:25:17;;;;;;;;;;;;;;;;;;5060506;28;20493;-75
2022/07/02 13:27:43;;;;;;;;;;;;;;;;;;5053281;28;19920;-74
2022/07/02 13:30:09;;;;;;;;;;;;;;;;;;5048672;28;20034;-73
2022/07/02 13:32:35;;;;;;;;;;;;;;;;;;5051615;28;19920;-75
2022/07/02 13:35:01;;;;;;;;;;;;;;;;;;5050125;28;19925;-75
2022/07/02 13:37:27;;;;;;;;;;;;;;;;;;5030695;28;19920;-75
2022/07/02 13:39:53;;;;;;;;;;;;;;;;;;5041936;28;19920;-75
2022/07/02 13:42:19;;;;;;;;;;;;;;;;;;5051562;28;20357;-75
2022/07/02 13:44:45;;;;;;;;;;;;;;;;;;5061084;28;19947;-75
2022/07/02 13:47:10;;;;;;;;;;;;;;;;;;5065397;27;19921;-75
2022/07/02 13:49:36;;;;;;;;;;;;;;;;;;5049699;28;19921;-75
2022/07/02 13:52:02;;;;;;;;;;;;;;;;;;5049786;28;19927;-74
2022/07/02 13:54:28;;;;;;;;;;;;;;;;;;5052429;28;19970;-75
2022/07/02 13:56:54;;;;;;;;;;;;;;;;;;5053588;28;20496;-74
2022/07/02 13:59:20;;;;;;;;;;;;;;;;;;5051089;28;19924;-75
2022/07/02 14:01:46;;;;;;;;;;;;;;;;;;5047285;28;20265;-76
2022/07/02 14:04:12;;;;;;;;;;;;;;;;;;5026698;28;19932;-75
2022/07/02 14:06:38;;;;;;;;;;;;;;;;;;5036461;28;19991;-76
2022/07/02 14:09:03;;;;;;;;;;;;;;;;;;5038598;28;20437;-75
2022/07/02 14:11:29;;;;;;;;;;;;;;;;;;5036655;28;19922;-75
2022/07/02 14:13:55;;;;;;;;;;;;;;;;;;5031245;28;20280;-75
2022/07/02 14:16:21;;;;;;;;;;;;;;;;;;5035906;28;19932;-75
2022/07/02 14:18:47;;;;;;;;;;;;;;;;;;5030946;28;20375;-75
2022/07/02 14:21:13;;;;;;;;;;;;;;;;;;5037029;28;19916;-74
2022/07/02 14:23:39;;;;;;;;;;;;;;;;;;5014060;28;19922;-74
2022/07/02 14:26:05;;;;;;;;;;;;;;;;;;5027924;28;19917;-75
2022/07/02 14:28:31;;;;;;;;;;;;;;;;;;5024499;28;20378;-75
2022/07/02 14:30:57;;;;;;;;;;;;;;;;;;5012302;28;19917;-74
2022/07/02 14:33:23;;;;;;;;;;;;;;;;;;5025741;28;20023;-76
2022/07/02 14:35:50;;;;;;;;;;;;;;;;;;5011386;28;19965;-74
2022/07/02 14:38:16;;;;;;;;;;;;;;;;;;5010064;28;19921;-74
2022/07/02 14:40:42;;;;;;;;;;;;;;;;;;5031811;28;19994;-74
2022/07/02 14:43:08;;;;;;;;;;;;;;;;;;5033001;28;19916;-75
2022/07/02 14:45:34;;;;;;;;;;;;;;;;;;5036330;28;19924;-74
2022/07/02 14:48:00;;;;;;;;;;;;;;;;;;5037866;28;19921;-75
2022/07/02 14:50:26;;;;;;;;;;;;;;;;;;5009707;28;19927;-76
2022/07/02 14:52:52;;;;;;;;;;;;;;;;;;5033146;28;19913;-75
2022/07/02 14:55:17;;;;;;;;;;;;;;;;;;5036501;28;19925;-74
2022/07/02 14:57:43;;;;;;;;;;;;;;;;;;5032288;28;19924;-75
2022/07/02 15:00:09;;;;;;;;;;;;;;;;;;5029922;28;20328;-75
2022/07/02 15:02:35;;;;;;;;;;;;;;;;;;5026750;28;20378;-75
2022/07/02 15:05:04;;;;;;;;;;;;;;;;;;5048167;28;19927;-75
2022/07/02 15:07:30;;;;;;;;;;;;;;;;;;5051768;28;19924;-75
2022/07/02 15:09:55;;;;;;;;;;;;;;;;;;5054957;28;19916;-74
2022/07/02 15:12:21;;;;;;;;;;;;;;;;;;5053530;28;19911;-76
2022/07/02 15:17:32;;;;;;;;;;;;;;;;;;5047956;28;20041;-75
2022/07/02 15:19:58;;;;;;;;;;;;;;;;;;5054333;28;19912;-75
2022/07/02 15:22:24;;;;;;;;;;;;;;;;;;5040652;28;20604;-75
2022/07/02 15:24:50;;;;;;;;;;;;;;;;;;5060177;28;20054;-75
2022/07/02 15:27:16;;;;;;;;;;;;;;;;;;5050440;28;19920;-74
2022/07/02 15:29:41;;;;;;;;;;;;;;;;;;5052926;28;21507;-75
2022/07/02 15:32:07;;;;;;;;;;;;;;;;;;5048697;28;19920;-76